createdAt,value
2023-04-30T00:01:18.369Z,98752.38
2023-04-30T00:03:47.313Z,98749.97
2023-04-30T00:06:16.630Z,98749.64
2023-04-30T00:08:45.561Z,98745.84
2023-04-30T00:11:14.413Z,98751.02
2023-04-30T00:13:43.872Z,98751.00
2023-04-30T00:16:12.749Z,98747.84
2023-04-30T00:18:41.554Z,98741.02
2023-04-30T00:21:10.550Z,98751.65
2023-04-30T00:23:39.418Z,98754.43
2023-04-30T00:26:08.228Z,98751.34
2023-04-30T00:28:38.458Z,98746.37
2023-04-30T00:31:09.326Z,98748.16
2023-04-30T00:33:38.072Z,98748.06
2023-04-30T00:36:07.605Z,98750.34
2023-04-30T00:38:36.363Z,98752.27
2023-04-30T00:41:05.144Z,98752.83
2023-04-30T00:43:34.256Z,98759.63
2023-04-30T00:46:03.907Z,98758.14
2023-04-30T00:48:32.765Z,98757.38
2023-04-30T00:51:01.926Z,98759.38
2023-04-30T00:53:30.655Z,98755.98
2023-04-30T00:55:59.855Z,98758.67
2023-04-30T00:58:28.569Z,98759.80
2023-04-30T01:00:57.397Z,98762.32
2023-04-30T01:03:26.330Z,98762.75
2023-04-30T01:05:55.322Z,98759.38
2023-04-30T01:08:24.374Z,98761.13
2023-04-30T01:10:55.623Z,98762.70
2023-04-30T01:13:26.919Z,98765.84
2023-04-30T01:15:58.359Z,98764.67
2023-04-30T01:18:29.403Z,98762.11
2023-04-30T01:20:59.557Z,98760.40
2023-04-30T01:23:34.410Z,98761.30
2023-04-30T01:26:07.853Z,98760.13
2023-04-30T01:28:37.487Z,98760.70
2023-04-30T01:31:07.951Z,98764.70
2023-04-30T01:33:36.760Z,98763.00
2023-04-30T01:36:18.137Z,98765.62
2023-04-30T01:38:50.440Z,98763.39
2023-04-30T01:41:21.353Z,98764.95
2023-04-30T01:43:55.108Z,98761.30
2023-04-30T01:46:27.359Z,98758.84
2023-04-30T01:48:59.084Z,98758.84
2023-04-30T01:51:30.808Z,98758.33
2023-04-30T01:54:00.343Z,98759.39
2023-04-30T01:56:33.667Z,98762.52
2023-04-30T01:59:02.530Z,98764.77
2023-04-30T02:01:32.000Z,98765.81
2023-04-30T02:04:01.629Z,98764.75
2023-04-30T02:06:31.301Z,98766.83
2023-04-30T02:09:05.306Z,98767.54
2023-04-30T02:11:34.258Z,98766.20
2023-04-30T02:14:03.151Z,98769.13
2023-04-30T02:16:32.179Z,98775.35
2023-04-30T02:19:02.702Z,98778.98
2023-04-30T02:21:31.762Z,98786.36
2023-04-30T02:24:00.534Z,98783.75
2023-04-30T02:26:29.286Z,98782.37
2023-04-30T02:28:57.968Z,98779.95
2023-04-30T02:31:26.834Z,98778.05
2023-04-30T02:33:55.544Z,98776.33
2023-04-30T02:36:24.791Z,98775.14
2023-04-30T02:38:53.606Z,98776.19
2023-04-30T02:41:22.703Z,98775.15
2023-04-30T02:43:51.578Z,98778.08
2023-04-30T02:46:20.471Z,98776.52
2023-04-30T02:48:49.305Z,98780.88
2023-04-30T02:51:18.374Z,98771.75
2023-04-30T02:53:47.694Z,98776.77
2023-04-30T02:56:16.561Z,98774.35
2023-04-30T02:58:45.458Z,98773.48
2023-04-30T03:01:14.594Z,98763.48
2023-04-30T03:03:43.527Z,98773.27
2023-04-30T03:06:13.007Z,98774.09
2023-04-30T03:08:41.882Z,98776.83
2023-04-30T03:11:10.675Z,98776.14
2023-04-30T03:13:39.446Z,98781.83
2023-04-30T03:16:08.514Z,98778.87
2023-04-30T03:18:37.364Z,98778.16
2023-04-30T03:21:06.329Z,98777.26
2023-04-30T03:23:35.078Z,98778.11
2023-04-30T03:26:04.015Z,98776.70
2023-04-30T03:28:32.841Z,98776.86
2023-04-30T03:31:05.855Z,98775.46
2023-04-30T03:33:35.056Z,98774.07
2023-04-30T03:36:04.072Z,98771.63
2023-04-30T03:38:32.872Z,98774.35
2023-04-30T03:41:01.658Z,98773.64
2023-04-30T03:43:30.568Z,98772.80
2023-04-30T03:45:59.792Z,98769.19
2023-04-30T03:48:28.525Z,98772.48
2023-04-30T03:50:57.355Z,98753.01
2023-04-30T03:53:26.851Z,98756.79
2023-04-30T03:55:55.768Z,98760.27
2023-04-30T03:58:24.510Z,98758.02
2023-04-30T04:00:53.417Z,98760.09
2023-04-30T04:03:22.306Z,98757.34
2023-04-30T04:05:51.387Z,98754.60
2023-04-30T04:08:20.191Z,98758.63
2023-04-30T04:10:49.585Z,98759.32
2023-04-30T04:13:18.506Z,98757.43
2023-04-30T04:15:47.421Z,98761.39
2023-04-30T04:18:16.291Z,98762.39
2023-04-30T04:20:45.283Z,98761.29
2023-04-30T04:23:14.196Z,98763.48
2023-04-30T04:25:44.326Z,98764.65
2023-04-30T04:28:13.616Z,98767.70
2023-04-30T04:30:42.538Z,98768.50
2023-04-30T04:33:11.747Z,98774.13
2023-04-30T04:35:40.638Z,98775.65
2023-04-30T04:38:09.360Z,98781.33
2023-04-30T04:40:38.319Z,98779.05
2023-04-30T04:43:07.462Z,98778.59
2023-04-30T04:45:37.720Z,98782.77
2023-04-30T04:48:06.884Z,98780.34
2023-04-30T04:50:36.088Z,98785.67
2023-04-30T04:53:04.796Z,98785.77
2023-04-30T04:55:33.673Z,98788.52
2023-04-30T04:58:02.435Z,98787.46
2023-04-30T05:00:31.164Z,98791.05
2023-04-30T05:02:59.979Z,98793.30
2023-04-30T05:05:28.790Z,98790.35
2023-04-30T05:07:57.685Z,98800.16
2023-04-30T05:10:26.382Z,98801.00
2023-04-30T05:12:55.192Z,98798.50
2023-04-30T05:15:23.899Z,98795.30
2023-04-30T05:17:52.684Z,98798.11
2023-04-30T05:20:21.406Z,98792.83
2023-04-30T05:22:50.401Z,98791.63
2023-04-30T05:25:19.535Z,98792.16
2023-04-30T05:27:48.303Z,98793.69
2023-04-30T05:30:17.026Z,98794.79
2023-04-30T05:32:50.628Z,98796.49
2023-04-30T05:35:19.474Z,98798.30
2023-04-30T05:37:48.356Z,98796.59
2023-04-30T05:40:17.386Z,98798.10
2023-04-30T05:42:46.105Z,98794.02
2023-04-30T05:45:17.157Z,98806.94
2023-04-30T05:47:46.303Z,98804.46
2023-04-30T05:50:15.223Z,98804.38
2023-04-30T05:52:44.185Z,98809.39
2023-04-30T05:55:12.980Z,98809.65
2023-04-30T05:57:42.290Z,98808.10
2023-04-30T06:00:12.613Z,98808.75
2023-04-30T06:02:41.752Z,98811.73
2023-04-30T06:05:11.745Z,98807.67
2023-04-30T06:07:41.582Z,98804.89
2023-04-30T06:10:12.551Z,98806.80
2023-04-30T06:12:41.335Z,98803.36
2023-04-30T06:15:11.640Z,98809.06
2023-04-30T06:17:40.549Z,98807.31
2023-04-30T06:20:10.218Z,98810.78
2023-04-30T06:22:41.024Z,98807.79
2023-04-30T06:25:10.891Z,98807.00
2023-04-30T06:27:39.907Z,98805.52
2023-04-30T06:30:09.974Z,98805.64
2023-04-30T06:32:38.865Z,98801.71
2023-04-30T06:35:08.132Z,98806.45
2023-04-30T06:37:38.044Z,98811.20
2023-04-30T06:40:08.152Z,98813.95
2023-04-30T06:42:37.503Z,98813.45
2023-04-30T06:45:07.491Z,98810.30
2023-04-30T06:47:38.088Z,98814.70
2023-04-30T06:50:07.526Z,98812.96
2023-04-30T06:52:36.348Z,98810.64
2023-04-30T06:55:05.815Z,98812.48
2023-04-30T06:57:34.638Z,98812.17
2023-04-30T07:00:04.059Z,98807.17
2023-04-30T07:02:32.877Z,98801.77
2023-04-30T07:05:02.015Z,98805.23
2023-04-30T07:07:31.343Z,98798.91
2023-04-30T07:10:00.331Z,98796.59
2023-04-30T07:12:29.169Z,98794.00
2023-04-30T07:14:58.039Z,98793.74
2023-04-30T07:17:27.837Z,98790.23
2023-04-30T07:19:57.087Z,98791.02
2023-04-30T07:22:26.180Z,98789.61
2023-04-30T07:24:55.096Z,98793.64
2023-04-30T07:27:24.202Z,98790.78
2023-04-30T07:29:53.783Z,98789.99
2023-04-30T07:32:23.033Z,98787.98
2023-04-30T07:34:52.294Z,98788.50
2023-04-30T07:37:21.808Z,98794.63
2023-04-30T07:39:50.839Z,98791.19
2023-04-30T07:42:19.852Z,98793.16
2023-04-30T07:44:49.241Z,98792.55
2023-04-30T07:47:18.537Z,98785.20
2023-04-30T07:49:47.869Z,98791.63
2023-04-30T07:52:16.712Z,98794.73
2023-04-30T07:54:45.539Z,98789.43
2023-04-30T07:57:14.568Z,98795.23
2023-04-30T07:59:43.422Z,98795.85
2023-04-30T08:02:12.286Z,98796.95
2023-04-30T08:04:41.233Z,98795.11
2023-04-30T08:07:10.264Z,98800.59
2023-04-30T08:09:39.322Z,98803.05
2023-04-30T08:12:08.069Z,98801.48
2023-04-30T08:14:36.844Z,98800.28
2023-04-30T08:17:05.621Z,98805.38
2023-04-30T08:19:34.657Z,98797.38
2023-04-30T08:22:03.410Z,98801.58
2023-04-30T08:24:32.181Z,98802.52
2023-04-30T08:27:04.146Z,98806.23
2023-04-30T08:29:32.872Z,98805.69
2023-04-30T08:32:02.095Z,98801.80
2023-04-30T08:34:30.961Z,98796.27
2023-04-30T08:37:00.321Z,98800.10
2023-04-30T08:39:29.063Z,98798.52
2023-04-30T08:41:58.064Z,98797.87
2023-04-30T08:44:27.068Z,98795.95
2023-04-30T08:46:56.222Z,98795.50
2023-04-30T08:49:25.193Z,98794.88
2023-04-30T08:51:54.454Z,98800.44
2023-04-30T08:54:23.232Z,98804.16
2023-04-30T08:56:52.015Z,98797.73
2023-04-30T08:59:21.430Z,98796.92
2023-04-30T09:01:52.167Z,98799.54
2023-04-30T09:04:22.546Z,98802.44
2023-04-30T09:06:53.063Z,98802.58
2023-04-30T09:09:21.853Z,98800.52
2023-04-30T09:11:50.647Z,98805.86
2023-04-30T09:14:23.542Z,98801.02
2023-04-30T09:16:54.078Z,98799.85
2023-04-30T09:19:27.184Z,98801.60
2023-04-30T09:21:56.179Z,98798.04
2023-04-30T09:24:25.360Z,98797.34
2023-04-30T09:26:54.604Z,98793.41
2023-04-30T09:29:24.015Z,98789.04
2023-04-30T09:31:52.824Z,98786.50
2023-04-30T09:34:22.275Z,98785.02
2023-04-30T09:36:55.003Z,98785.98
2023-04-30T09:39:24.062Z,98791.52
2023-04-30T09:41:52.912Z,98787.27
2023-04-30T09:44:31.123Z,98788.96
2023-04-30T09:47:00.168Z,98780.30
2023-04-30T09:49:29.063Z,98775.34
2023-04-30T09:51:58.507Z,98772.70
2023-04-30T09:54:28.673Z,98770.63
2023-04-30T09:56:59.104Z,98765.59
2023-04-30T09:59:30.739Z,98769.55
2023-04-30T10:02:01.045Z,98762.98
2023-04-30T10:04:31.966Z,98761.99
2023-04-30T10:07:01.295Z,98758.86
2023-04-30T10:09:31.239Z,98764.23
2023-04-30T10:12:00.093Z,98761.45
2023-04-30T10:14:28.861Z,98762.16
2023-04-30T10:16:58.781Z,98759.92
2023-04-30T10:19:27.890Z,98753.44
2023-04-30T10:21:56.725Z,98749.70
2023-04-30T10:24:25.510Z,98755.16
2023-04-30T10:26:54.155Z,98749.91
2023-04-30T10:29:23.528Z,98741.19
2023-04-30T10:31:53.774Z,98740.91
2023-04-30T10:34:29.959Z,98745.30
2023-04-30T10:37:00.118Z,98738.06
2023-04-30T10:39:29.117Z,98738.75
2023-04-30T10:42:03.825Z,98739.57
2023-04-30T10:44:34.920Z,98728.09
2023-04-30T10:47:04.329Z,98733.55
2023-04-30T10:49:33.384Z,98725.70
2023-04-30T10:52:03.597Z,98721.32
2023-04-30T10:54:33.014Z,98719.55
2023-04-30T10:57:12.215Z,98719.45
2023-04-30T10:59:41.199Z,98723.35
2023-04-30T11:02:09.955Z,98717.21
2023-04-30T11:04:39.397Z,98712.88
2023-04-30T11:07:11.495Z,98719.52
2023-04-30T11:09:42.144Z,98720.34
2023-04-30T11:12:14.753Z,98711.69
2023-04-30T11:14:44.021Z,98709.52
2023-04-30T11:17:13.374Z,98706.34
2023-04-30T11:19:49.300Z,98704.19
2023-04-30T11:22:23.020Z,98700.63
2023-04-30T11:24:52.185Z,98704.59
2023-04-30T11:27:23.073Z,98709.54
2023-04-30T11:29:52.608Z,98700.02
2023-04-30T11:32:21.726Z,98691.17
2023-04-30T11:34:50.941Z,98690.22
2023-04-30T11:37:21.894Z,98685.48
2023-04-30T11:39:51.321Z,98684.64
2023-04-30T11:42:20.162Z,98671.81
2023-04-30T11:44:48.932Z,98674.75
2023-04-30T11:47:17.632Z,98672.86
2023-04-30T11:49:46.411Z,98685.55
2023-04-30T11:52:15.249Z,98679.36
2023-04-30T11:54:43.957Z,98675.77
2023-04-30T11:57:12.669Z,98675.23
2023-04-30T11:59:44.650Z,98677.67
2023-04-30T12:02:16.428Z,98672.05
2023-04-30T12:04:47.262Z,98668.46
2023-04-30T12:07:15.972Z,98661.02
2023-04-30T12:09:54.385Z,98652.11
2023-04-30T12:12:29.071Z,98644.84
2023-04-30T12:14:57.846Z,98646.85
2023-04-30T12:17:34.060Z,98646.09
2023-04-30T12:20:05.052Z,98651.80
2023-04-30T12:22:33.817Z,98646.78
2023-04-30T12:25:02.590Z,98644.41
2023-04-30T12:27:31.874Z,98644.24
2023-04-30T12:30:00.777Z,98645.52
2023-04-30T12:32:30.297Z,98647.98
2023-04-30T12:35:02.124Z,98646.02
2023-04-30T12:37:30.993Z,98646.52
2023-04-30T12:40:00.183Z,98639.13
2023-04-30T12:42:34.891Z,98643.39
2023-04-30T12:45:03.783Z,98645.39
2023-04-30T12:47:32.595Z,98644.23
2023-04-30T12:50:01.360Z,98639.20
2023-04-30T12:52:30.121Z,98634.98
2023-04-30T12:54:58.836Z,98631.26
2023-04-30T12:57:27.677Z,98627.33
2023-04-30T12:59:59.838Z,98629.45
2023-04-30T13:02:29.460Z,98622.05
2023-04-30T13:04:59.041Z,98616.09
2023-04-30T13:07:27.780Z,98606.11
2023-04-30T13:09:57.020Z,98602.48
2023-04-30T13:15:12.093Z,98601.16
2023-04-30T13:17:40.838Z,98600.23
2023-04-30T13:20:11.787Z,98595.92
2023-04-30T13:22:40.777Z,98589.74
2023-04-30T13:25:10.477Z,98583.60
2023-04-30T13:30:45.012Z,98586.80
2023-04-30T13:33:41.329Z,98579.55
2023-04-30T13:36:19.864Z,98584.53
2023-04-30T13:38:48.602Z,98581.19
2023-04-30T13:41:17.454Z,98576.67
2023-04-30T13:43:47.723Z,98573.61
2023-04-30T13:46:16.634Z,98566.74
2023-04-30T13:48:48.085Z,98562.48
2023-04-30T13:51:16.990Z,98570.67
2023-04-30T13:53:45.957Z,98572.25
2023-04-30T13:56:16.384Z,98562.31
2023-04-30T13:58:45.412Z,98561.59
2023-04-30T14:01:14.670Z,98564.11
2023-04-30T14:03:44.353Z,98559.54
2023-04-30T14:06:13.239Z,98559.96
2023-04-30T14:08:42.108Z,98555.32
2023-04-30T14:11:11.231Z,98544.63
2023-04-30T14:13:40.047Z,98550.36
2023-04-30T14:16:10.268Z,98550.17
2023-04-30T14:18:39.321Z,98548.59
2023-04-30T14:21:08.079Z,98551.60
2023-04-30T14:23:38.639Z,98551.41
2023-04-30T14:26:07.508Z,98547.61
2023-04-30T14:28:38.949Z,98545.23
2023-04-30T14:31:07.777Z,98541.72
2023-04-30T14:33:36.498Z,98539.93
2023-04-30T14:36:05.629Z,98533.47
2023-04-30T14:38:34.318Z,98528.97
2023-04-30T14:41:03.131Z,98532.55
2023-04-30T14:43:31.917Z,98533.31
2023-04-30T14:46:00.588Z,98532.02
2023-04-30T14:48:29.368Z,98535.82
2023-04-30T14:50:58.720Z,98533.38
2023-04-30T14:53:28.224Z,98531.06
2023-04-30T14:55:57.175Z,98529.79
2023-04-30T14:58:26.499Z,98521.52
2023-04-30T15:00:57.127Z,98521.89
2023-04-30T15:03:26.475Z,98511.70
2023-04-30T15:05:56.382Z,98510.36
2023-04-30T15:08:26.282Z,98509.71
2023-04-30T15:10:55.812Z,98511.13
2023-04-30T15:13:25.127Z,98512.14
2023-04-30T15:15:54.244Z,98513.73
2023-04-30T15:18:24.228Z,98511.68
2023-04-30T15:20:54.513Z,98506.25
2023-04-30T15:23:24.007Z,98506.54
2023-04-30T15:25:53.188Z,98500.32
2023-04-30T15:28:24.781Z,98490.56
2023-04-30T15:30:55.989Z,98486.64
2023-04-30T15:33:28.834Z,98494.73
2023-04-30T15:35:58.658Z,98492.52
2023-04-30T15:38:28.456Z,98494.59
2023-04-30T15:40:57.818Z,98501.15
2023-04-30T15:43:27.206Z,98495.62
2023-04-30T15:46:04.372Z,98498.96
2023-04-30T15:48:33.590Z,98497.98
2023-04-30T15:51:02.991Z,98493.92
2023-04-30T15:53:32.602Z,98488.27
2023-04-30T15:56:04.254Z,98490.46
2023-04-30T15:58:33.857Z,98487.21
2023-04-30T16:01:03.154Z,98490.45
2023-04-30T16:03:32.319Z,98487.56
2023-04-30T16:06:01.772Z,98490.12
2023-04-30T16:08:31.482Z,98489.36
2023-04-30T16:11:01.266Z,98490.51
2023-04-30T16:13:30.104Z,98485.38
2023-04-30T16:15:58.888Z,98485.05
2023-04-30T16:18:29.843Z,98480.82
2023-04-30T16:20:59.405Z,98477.30
2023-04-30T16:23:29.608Z,98471.20
2023-04-30T16:25:59.785Z,98473.15
2023-04-30T16:28:30.202Z,98476.56
2023-04-30T16:31:00.762Z,98474.25
2023-04-30T16:33:35.538Z,98473.29
2023-04-30T16:36:05.720Z,98473.60
2023-04-30T16:38:35.045Z,98473.35
2023-04-30T16:41:05.758Z,98468.17
2023-04-30T16:43:35.627Z,98468.29
2023-04-30T16:46:07.567Z,98464.21
2023-04-30T16:48:37.687Z,98462.14
2023-04-30T16:51:07.888Z,98454.23
2023-04-30T16:53:38.782Z,98452.64
2023-04-30T16:56:08.278Z,98453.77
2023-04-30T16:58:37.983Z,98454.77
2023-04-30T17:01:06.884Z,98448.80
2023-04-30T17:03:36.032Z,98450.79
2023-04-30T17:06:07.152Z,98447.90
2023-04-30T17:08:35.956Z,98444.92
2023-04-30T17:11:04.777Z,98446.10
2023-04-30T17:13:33.673Z,98444.30
2023-04-30T17:16:02.504Z,98439.52
2023-04-30T17:18:31.415Z,98441.36
2023-04-30T17:21:00.278Z,98438.38
2023-04-30T17:23:29.003Z,98440.15
2023-04-30T17:25:57.973Z,98437.60
2023-04-30T17:28:26.742Z,98441.27
2023-04-30T17:30:55.847Z,98443.24
2023-04-30T17:33:26.463Z,98439.93
2023-04-30T17:35:55.573Z,98442.02
2023-04-30T17:38:24.391Z,98443.32
2023-04-30T17:40:54.204Z,98436.09
2023-04-30T17:43:23.008Z,98440.31
2023-04-30T17:45:52.062Z,98442.55
2023-04-30T17:48:20.813Z,98439.86
2023-04-30T17:50:49.930Z,98441.84
2023-04-30T17:53:18.677Z,98441.20
2023-04-30T17:55:47.441Z,98441.20
2023-04-30T17:58:16.243Z,98442.39
2023-04-30T18:00:44.998Z,98442.28
2023-04-30T18:03:13.815Z,98442.16
2023-04-30T18:05:42.620Z,98438.92
2023-04-30T18:08:11.566Z,98437.92
2023-04-30T18:10:40.533Z,98440.79
2023-04-30T18:13:10.387Z,98436.53
2023-04-30T18:15:39.800Z,98440.33
2023-04-30T18:18:09.203Z,98435.01
2023-04-30T18:20:38.321Z,98439.56
2023-04-30T18:23:09.248Z,98438.43
2023-04-30T18:25:38.757Z,98433.21
2023-04-30T18:28:08.691Z,98433.81
2023-04-30T18:30:37.534Z,98429.04
2023-04-30T18:33:07.163Z,98426.39
2023-04-30T18:35:35.944Z,98427.88
2023-04-30T18:38:09.151Z,98424.86
2023-04-30T18:40:38.068Z,98426.38
2023-04-30T18:43:07.370Z,98426.11
2023-04-30T18:45:36.695Z,98426.37
2023-04-30T18:48:05.975Z,98427.44
2023-04-30T18:50:34.781Z,98428.99
2023-04-30T18:53:04.221Z,98428.17
2023-04-30T18:55:32.953Z,98431.77
2023-04-30T18:58:01.778Z,98432.55
2023-04-30T19:00:30.568Z,98430.47
2023-04-30T19:03:00.369Z,98432.60
2023-04-30T19:05:29.366Z,98436.66
2023-04-30T19:07:58.138Z,98436.65
2023-04-30T19:10:27.158Z,98438.38
2023-04-30T19:12:56.225Z,98441.42
2023-04-30T19:15:25.645Z,98443.73
2023-04-30T19:17:54.608Z,98443.79
2023-04-30T19:20:23.427Z,98444.64
2023-04-30T19:22:52.184Z,98445.89
2023-04-30T19:25:21.417Z,98447.28
2023-04-30T19:27:50.181Z,98446.94
2023-04-30T19:30:19.354Z,98448.20
2023-04-30T19:32:48.218Z,98454.08
2023-04-30T19:35:17.465Z,98454.43
2023-04-30T19:37:46.427Z,98456.15
2023-04-30T19:40:16.164Z,98458.77
2023-04-30T19:42:46.256Z,98459.86
2023-04-30T19:45:15.823Z,98460.13
2023-04-30T19:47:44.773Z,98464.36
2023-04-30T19:50:14.519Z,98465.05
2023-04-30T19:52:43.508Z,98469.75
2023-04-30T19:55:13.148Z,98469.83
2023-04-30T19:57:41.975Z,98471.55
2023-04-30T20:00:12.901Z,98474.23
2023-04-30T20:02:42.036Z,98470.15
2023-04-30T20:05:11.923Z,98474.58
2023-04-30T20:07:40.692Z,98469.80
2023-04-30T20:10:10.784Z,98470.34
2023-04-30T20:12:39.675Z,98473.17
2023-04-30T20:15:09.868Z,98470.71
2023-04-30T20:17:38.674Z,98472.78
2023-04-30T20:20:08.292Z,98475.10
2023-04-30T20:22:37.186Z,98473.95
2023-04-30T20:25:06.554Z,98474.91
2023-04-30T20:27:35.433Z,98471.39
2023-04-30T20:30:04.745Z,98473.82
2023-04-30T20:32:34.654Z,98474.13
2023-04-30T20:35:03.728Z,98471.70
2023-04-30T20:37:33.040Z,98471.27
2023-04-30T20:40:02.384Z,98471.65
2023-04-30T20:42:31.303Z,98472.15
2023-04-30T20:45:05.513Z,98475.82
2023-04-30T20:47:34.756Z,98473.08
2023-04-30T20:50:03.826Z,98472.45
2023-04-30T20:52:32.593Z,98474.48
2023-04-30T20:55:01.404Z,98472.94
2023-04-30T20:57:30.304Z,98472.33
2023-04-30T20:59:59.144Z,98468.59
2023-04-30T21:02:28.255Z,98465.91
2023-04-30T21:04:58.411Z,98466.11
2023-04-30T21:07:27.526Z,98469.48
2023-04-30T21:09:57.037Z,98472.56
2023-04-30T21:12:26.840Z,98474.70
2023-04-30T21:14:55.585Z,98475.44
2023-04-30T21:17:24.554Z,98471.76
2023-04-30T21:19:53.550Z,98476.56
2023-04-30T21:22:22.573Z,98473.55
2023-04-30T21:24:52.208Z,98470.03
2023-04-30T21:27:21.006Z,98473.61
2023-04-30T21:29:49.782Z,98468.33
2023-04-30T21:32:18.747Z,98469.95
2023-04-30T21:34:48.205Z,98473.79
2023-04-30T21:37:17.461Z,98470.38
2023-04-30T21:39:46.308Z,98467.92
2023-04-30T21:42:15.082Z,98467.44
2023-04-30T21:44:44.334Z,98465.08
2023-04-30T21:47:13.140Z,98465.80
2023-04-30T21:49:42.606Z,98463.40
2023-04-30T21:52:11.573Z,98464.63
2023-04-30T21:54:40.408Z,98464.81
2023-04-30T21:57:09.196Z,98467.94
2023-04-30T21:59:37.915Z,98464.17
2023-04-30T22:02:19.999Z,98467.15
2023-04-30T22:04:53.340Z,98463.38
2023-04-30T22:07:22.812Z,98461.20
2023-04-30T22:09:52.683Z,98457.00
2023-04-30T22:12:24.927Z,98459.15
2023-04-30T22:14:54.751Z,98463.13
2023-04-30T22:17:23.534Z,98462.85
2023-04-30T22:19:52.556Z,98459.84
2023-04-30T22:22:24.719Z,98461.80
2023-04-30T22:24:53.697Z,98458.92
2023-04-30T22:27:23.121Z,98462.27
2023-04-30T22:29:52.053Z,98458.79
2023-04-30T22:32:20.852Z,98454.13
2023-04-30T22:34:50.769Z,98463.67
2023-04-30T22:37:19.959Z,98457.47
2023-04-30T22:39:48.876Z,98455.10
2023-04-30T22:42:18.105Z,98457.84
2023-04-30T22:44:46.911Z,98450.11
2023-04-30T22:47:16.139Z,98449.04
2023-04-30T22:49:45.385Z,98448.36
2023-04-30T22:52:14.265Z,98449.05
2023-04-30T22:54:43.134Z,98446.77
2023-04-30T22:57:12.109Z,98449.40
2023-04-30T22:59:40.932Z,98445.47
2023-04-30T23:02:09.613Z,98450.91
2023-04-30T23:04:38.450Z,98449.41
2023-04-30T23:07:07.599Z,98450.77
2023-04-30T23:09:36.404Z,98448.35
2023-04-30T23:12:05.541Z,98445.77
2023-04-30T23:14:34.287Z,98445.95
2023-04-30T23:17:03.245Z,98441.08
2023-04-30T23:19:32.087Z,98439.57
2023-04-30T23:22:00.957Z,98432.11
2023-04-30T23:24:34.981Z,98439.43
2023-04-30T23:27:03.741Z,98437.05
2023-04-30T23:29:33.302Z,98434.46
2023-04-30T23:32:04.392Z,98436.92
2023-04-30T23:34:33.485Z,98433.96
2023-04-30T23:37:02.369Z,98431.55
2023-04-30T23:39:31.312Z,98423.42
2023-04-30T23:42:00.276Z,98416.73
2023-04-30T23:44:31.646Z,98415.40
2023-04-30T23:47:01.839Z,98412.67
2023-04-30T23:49:30.697Z,98410.98
2023-04-30T23:51:59.813Z,98407.31
2023-04-30T23:54:28.698Z,98404.71
2023-04-30T23:56:57.499Z,98399.31
2023-04-30T23:59:26.816Z,98391.14
